sensor_id;sensor_type;location;lat;lon;timestamp;P1;durP1;ratioP1;P2;durP2;ratioP2
14268;SDS011;7218;51.480;7.006;2023-07-22T00:02:16;10.50;;;6.70;;
14268;SDS011;7218;51.480;7.006;2023-07-22T00:04:42;11.45;;;7.32;;
14268;SDS011;7218;51.480;7.006;2023-07-22T00:07:09;10.15;;;7.20;;
14268;SDS011;7218;51.480;7.006;2023-07-22T00:09:36;9.43;;;7.53;;
14268;SDS011;7218;51.480;7.006;2023-07-22T00:12:05;8.57;;;6.97;;
14268;SDS011;7218;51.480;7.006;2023-07-22T00:14:32;10.88;;;6.57;;
14268;SDS011;7218;51.480;7.006;2023-07-22T00:16:59;10.40;;;7.50;;
14268;SDS011;7218;51.480;7.006;2023-07-22T00:19:25;12.05;;;7.03;;
14268;SDS011;7218;51.480;7.006;2023-07-22T00:21:52;8.88;;;7.13;;
14268;SDS011;7218;51.480;7.006;2023-07-22T00:24:19;10.80;;;7.13;;
14268;SDS011;7218;51.480;7.006;2023-07-22T00:26:46;8.90;;;6.57;;
14268;SDS011;7218;51.480;7.006;2023-07-22T00:29:16;11.02;;;6.95;;
14268;SDS011;7218;51.480;7.006;2023-07-22T00:31:43;8.93;;;6.47;;
14268;SDS011;7218;51.480;7.006;2023-07-22T00:34:09;9.05;;;6.35;;
14268;SDS011;7218;51.480;7.006;2023-07-22T00:36:36;8.95;;;6.95;;
14268;SDS011;7218;51.480;7.006;2023-07-22T00:39:03;8.43;;;6.40;;
14268;SDS011;7218;51.480;7.006;2023-07-22T00:41:30;7.50;;;6.32;;
14268;SDS011;7218;51.480;7.006;2023-07-22T00:43:57;8.93;;;5.95;;
14268;SDS011;7218;51.480;7.006;2023-07-22T00:46:25;7.75;;;6.30;;
14268;SDS011;7218;51.480;7.006;2023-07-22T00:48:51;7.65;;;6.13;;
14268;SDS011;7218;51.480;7.006;2023-07-22T00:51:18;8.27;;;6.25;;
14268;SDS011;7218;51.480;7.006;2023-07-22T00:53:47;8.32;;;6.40;;
14268;SDS011;7218;51.480;7.006;2023-07-22T00:56:13;8.77;;;6.07;;
14268;SDS011;7218;51.480;7.006;2023-07-22T00:58:40;9.70;;;6.38;;
14268;SDS011;7218;51.480;7.006;2023-07-22T01:01:07;7.30;;;6.53;;
14268;SDS011;7218;51.480;7.006;2023-07-22T01:03:34;7.90;;;6.43;;
14268;SDS011;7218;51.480;7.006;2023-07-22T01:06:01;7.35;;;6.18;;
14268;SDS011;7218;51.480;7.006;2023-07-22T01:08:28;8.23;;;6.38;;
14268;SDS011;7218;51.480;7.006;2023-07-22T01:10:55;7.43;;;6.22;;
14268;SDS011;7218;51.480;7.006;2023-07-22T01:13:22;8.35;;;6.13;;
14268;SDS011;7218;51.480;7.006;2023-07-22T01:15:48;8.82;;;6.63;;
14268;SDS011;7218;51.480;7.006;2023-07-22T01:18:15;7.90;;;6.07;;
14268;SDS011;7218;51.480;7.006;2023-07-22T01:20:43;7.28;;;6.03;;
14268;SDS011;7218;51.480;7.006;2023-07-22T01:23:13;9.70;;;6.30;;
14268;SDS011;7218;51.480;7.006;2023-07-22T01:25:40;8.10;;;6.40;;
14268;SDS011;7218;51.480;7.006;2023-07-22T01:28:08;6.95;;;6.07;;
14268;SDS011;7218;51.480;7.006;2023-07-22T01:30:44;7.78;;;5.57;;
14268;SDS011;7218;51.480;7.006;2023-07-22T01:33:10;8.75;;;5.80;;
14268;SDS011;7218;51.480;7.006;2023-07-22T01:35:37;9.05;;;6.32;;
14268;SDS011;7218;51.480;7.006;2023-07-22T01:38:03;9.25;;;6.35;;
14268;SDS011;7218;51.480;7.006;2023-07-22T01:40:30;7.70;;;5.88;;
14268;SDS011;7218;51.480;7.006;2023-07-22T01:42:56;6.97;;;6.05;;
14268;SDS011;7218;51.480;7.006;2023-07-22T01:45:23;7.05;;;5.95;;
14268;SDS011;7218;51.480;7.006;2023-07-22T01:47:51;8.40;;;5.90;;
14268;SDS011;7218;51.480;7.006;2023-07-22T01:50:18;10.43;;;6.53;;
14268;SDS011;7218;51.480;7.006;2023-07-22T01:52:44;7.45;;;6.13;;
14268;SDS011;7218;51.480;7.006;2023-07-22T01:55:11;9.70;;;6.55;;
14268;SDS011;7218;51.480;7.006;2023-07-22T01:57:38;7.57;;;6.05;;
14268;SDS011;7218;51.480;7.006;2023-07-22T02:00:06;9.02;;;6.40;;
14268;SDS011;7218;51.480;7.006;2023-07-22T02:02:35;8.80;;;6.57;;
14268;SDS011;7218;51.480;7.006;2023-07-22T02:05:04;9.85;;;6.55;;
14268;SDS011;7218;51.480;7.006;2023-07-22T02:07:31;7.75;;;6.63;;
14268;SDS011;7218;51.480;7.006;2023-07-22T02:09:58;9.23;;;6.38;;
14268;SDS011;7218;51.480;7.006;2023-07-22T02:12:24;14.45;;;6.57;;
14268;SDS011;7218;51.480;7.006;2023-07-22T02:14:50;8.55;;;6.70;;
14268;SDS011;7218;51.480;7.006;2023-07-22T02:17:17;7.97;;;6.85;;
14268;SDS011;7218;51.480;7.006;2023-07-22T02:19:45;7.40;;;6.05;;
14268;SDS011;7218;51.480;7.006;2023-07-22T02:22:13;8.48;;;6.53;;
14268;SDS011;7218;51.480;7.006;2023-07-22T02:24:39;11.60;;;7.25;;
14268;SDS011;7218;51.480;7.006;2023-07-22T02:27:06;9.77;;;6.90;;
14268;SDS011;7218;51.480;7.006;2023-07-22T02:29:33;8.93;;;7.30;;
14268;SDS011;7218;51.480;7.006;2023-07-22T02:32:00;7.60;;;6.50;;
14268;SDS011;7218;51.480;7.006;2023-07-22T02:34:27;10.25;;;6.65;;
14268;SDS011;7218;51.480;7.006;2023-07-22T02:36:54;9.02;;;7.00;;
14268;SDS011;7218;51.480;7.006;2023-07-22T02:39:21;9.02;;;6.32;;
14268;SDS011;7218;51.480;7.006;2023-07-22T02:41:48;9.05;;;6.93;;
14268;SDS011;7218;51.480;7.006;2023-07-22T02:44:14;9.55;;;7.13;;
14268;SDS011;7218;51.480;7.006;2023-07-22T02:46:41;9.88;;;7.00;;
14268;SDS011;7218;51.480;7.006;2023-07-22T02:49:08;10.43;;;6.47;;
14268;SDS011;7218;51.480;7.006;2023-07-22T02:51:35;10.07;;;6.50;;
14268;SDS011;7218;51.480;7.006;2023-07-22T02:54:01;9.02;;;6.95;;
14268;SDS011;7218;51.480;7.006;2023-07-22T02:56:30;10.15;;;6.93;;
14268;SDS011;7218;51.480;7.006;2023-07-22T02:58:56;11.10;;;6.97;;
14268;SDS011;7218;51.480;7.006;2023-07-22T03:01:23;13.63;;;6.82;;
14268;SDS011;7218;51.480;7.006;2023-07-22T03:03:49;9.55;;;6.75;;
14268;SDS011;7218;51.480;7.006;2023-07-22T03:06:16;9.13;;;6.68;;
14268;SDS011;7218;51.480;7.006;2023-07-22T03:08:43;11.05;;;6.80;;
14268;SDS011;7218;51.480;7.006;2023-07-22T03:11:10;8.30;;;6.70;;
14268;SDS011;7218;51.480;7.006;2023-07-22T03:13:37;10.63;;;6.25;;
14268;SDS011;7218;51.480;7.006;2023-07-22T03:16:04;8.20;;;6.20;;
14268;SDS011;7218;51.480;7.006;2023-07-22T03:18:31;8.20;;;6.00;;
14268;SDS011;7218;51.480;7.006;2023-07-22T03:20:57;8.93;;;5.90;;
14268;SDS011;7218;51.480;7.006;2023-07-22T03:23:24;7.20;;;5.88;;
14268;SDS011;7218;51.480;7.006;2023-07-22T03:25:50;10.00;;;6.30;;
14268;SDS011;7218;51.480;7.006;2023-07-22T03:28:17;8.75;;;6.10;;
14268;SDS011;7218;51.480;7.006;2023-07-22T03:30:44;7.15;;;5.72;;
14268;SDS011;7218;51.480;7.006;2023-07-22T03:33:11;8.27;;;5.90;;
14268;SDS011;7218;51.480;7.006;2023-07-22T03:35:37;7.65;;;5.82;;
14268;SDS011;7218;51.480;7.006;2023-07-22T03:38:04;10.55;;;5.93;;
14268;SDS011;7218;51.480;7.006;2023-07-22T03:40:30;6.20;;;5.45;;
14268;SDS011;7218;51.480;7.006;2023-07-22T03:42:57;8.05;;;6.03;;
14268;SDS011;7218;51.480;7.006;2023-07-22T03:45:24;8.50;;;5.82;;
14268;SDS011;7218;51.480;7.006;2023-07-22T03:47:53;8.52;;;5.57;;
14268;SDS011;7218;51.480;7.006;2023-07-22T03:50:23;6.75;;;5.80;;
14268;SDS011;7218;51.480;7.006;2023-07-22T03:52:50;9.05;;;5.72;;
14268;SDS011;7218;51.480;7.006;2023-07-22T03:55:17;10.00;;;5.57;;
14268;SDS011;7218;51.480;7.006;2023-07-22T03:57:44;10.82;;;5.90;;
14268;SDS011;7218;51.480;7.006;2023-07-22T04:00:11;8.48;;;5.65;;
14268;SDS011;7218;51.480;7.006;2023-07-22T04:02:38;7.88;;;6.03;;
14268;SDS011;7218;51.480;7.006;2023-07-22T04:05:06;7.30;;;5.85;;
14268;SDS011;7218;51.480;7.006;2023-07-22T04:07:33;8.35;;;6.15;;
14268;SDS011;7218;51.480;7.006;2023-07-22T04:10:00;7.68;;;5.60;;
14268;SDS011;7218;51.480;7.006;2023-07-22T04:12:27;7.47;;;5.95;;
14268;SDS011;7218;51.480;7.006;2023-07-22T04:14:54;9.10;;;6.00;;
14268;SDS011;7218;51.480;7.006;2023-07-22T04:17:20;8.75;;;5.88;;
14268;SDS011;7218;51.480;7.006;2023-07-22T04:19:47;8.60;;;5.63;;
14268;SDS011;7218;51.480;7.006;2023-07-22T04:22:14;7.00;;;5.85;;
14268;SDS011;7218;51.480;7.006;2023-07-22T04:24:41;7.80;;;5.68;;
14268;SDS011;7218;51.480;7.006;2023-07-22T04:27:08;9.63;;;6.18;;
14268;SDS011;7218;51.480;7.006;2023-07-22T04:29:34;8.45;;;6.03;;
14268;SDS011;7218;51.480;7.006;2023-07-22T04:32:01;10.00;;;6.45;;
14268;SDS011;7218;51.480;7.006;2023-07-22T04:34:29;6.35;;;5.47;;
14268;SDS011;7218;51.480;7.006;2023-07-22T04:36:55;8.20;;;6.13;;
14268;SDS011;7218;51.480;7.006;2023-07-22T04:39:23;9.65;;;6.15;;
14268;SDS011;7218;51.480;7.006;2023-07-22T04:41:50;7.68;;;6.18;;
14268;SDS011;7218;51.480;7.006;2023-07-22T04:44:17;8.18;;;6.15;;
14268;SDS011;7218;51.480;7.006;2023-07-22T04:46:44;9.40;;;6.78;;
14268;SDS011;7218;51.480;7.006;2023-07-22T04:49:10;7.57;;;6.30;;
14268;SDS011;7218;51.480;7.006;2023-07-22T04:51:37;9.88;;;6.50;;
14268;SDS011;7218;51.480;7.006;2023-07-22T04:54:03;8.50;;;6.32;;
14268;SDS011;7218;51.480;7.006;2023-07-22T04:56:31;9.55;;;6.15;;
14268;SDS011;7218;51.480;7.006;2023-07-22T04:58:57;7.68;;;5.97;;
14268;SDS011;7218;51.480;7.006;2023-07-22T05:01:24;7.85;;;5.57;;
14268;SDS011;7218;51.480;7.006;2023-07-22T05:03:50;8.18;;;5.50;;
14268;SDS011;7218;51.480;7.006;2023-07-22T05:06:17;7.20;;;5.55;;
14268;SDS011;7218;51.480;7.006;2023-07-22T05:08:44;8.10;;;5.60;;
14268;SDS011;7218;51.480;7.006;2023-07-22T05:11:10;8.35;;;5.82;;
14268;SDS011;7218;51.480;7.006;2023-07-22T05:13:38;8.75;;;5.93;;
14268;SDS011;7218;51.480;7.006;2023-07-22T05:16:05;7.07;;;5.00;;
14268;SDS011;7218;51.480;7.006;2023-07-22T05:18:31;10.75;;;5.90;;
14268;SDS011;7218;51.480;7.006;2023-07-22T05:20:57;8.23;;;5.80;;
14268;SDS011;7218;51.480;7.006;2023-07-22T05:23:24;10.05;;;5.85;;
14268;SDS011;7218;51.480;7.006;2023-07-22T05:25:50;6.47;;;5.70;;
14268;SDS011;7218;51.480;7.006;2023-07-22T05:28:18;7.65;;;5.60;;
14268;SDS011;7218;51.480;7.006;2023-07-22T05:30:46;7.00;;;5.43;;
14268;SDS011;7218;51.480;7.006;2023-07-22T05:33:13;8.35;;;5.75;;
14268;SDS011;7218;51.480;7.006;2023-07-22T05:35:39;9.80;;;5.53;;
14268;SDS011;7218;51.480;7.006;2023-07-22T05:38:06;9.20;;;5.75;;
14268;SDS011;7218;51.480;7.006;2023-07-22T05:40:32;6.53;;;5.18;;
14268;SDS011;7218;51.480;7.006;2023-07-22T05:42:59;6.40;;;5.75;;
14268;SDS011;7218;51.480;7.006;2023-07-22T05:45:26;10.30;;;5.65;;
14268;SDS011;7218;51.480;7.006;2023-07-22T05:47:53;7.45;;;5.70;;
14268;SDS011;7218;51.480;7.006;2023-07-22T05:50:20;8.35;;;5.95;;
14268;SDS011;7218;51.480;7.006;2023-07-22T05:52:46;7.57;;;5.80;;
14268;SDS011;7218;51.480;7.006;2023-07-22T05:55:13;7.22;;;5.68;;
14268;SDS011;7218;51.480;7.006;2023-07-22T05:57:40;7.15;;;5.80;;
14268;SDS011;7218;51.480;7.006;2023-07-22T06:00:06;6.70;;;5.55;;
14268;SDS011;7218;51.480;7.006;2023-07-22T06:02:34;8.88;;;5.82;;
14268;SDS011;7218;51.480;7.006;2023-07-22T06:05:02;8.82;;;5.90;;
14268;SDS011;7218;51.480;7.006;2023-07-22T06:07:29;7.60;;;6.00;;
14268;SDS011;7218;51.480;7.006;2023-07-22T06:09:55;9.60;;;6.18;;
14268;SDS011;7218;51.480;7.006;2023-07-22T06:12:22;8.35;;;6.45;;
14268;SDS011;7218;51.480;7.006;2023-07-22T06:14:48;7.97;;;6.05;;
14268;SDS011;7218;51.480;7.006;2023-07-22T06:17:15;11.10;;;6.13;;
14268;SDS011;7218;51.480;7.006;2023-07-22T06:19:41;9.27;;;6.40;;
14268;SDS011;7218;51.480;7.006;2023-07-22T06:22:09;7.88;;;6.28;;
14268;SDS011;7218;51.480;7.006;2023-07-22T06:24:36;9.52;;;6.78;;
14268;SDS011;7218;51.480;7.006;2023-07-22T06:27:03;9.30;;;6.35;;
14268;SDS011;7218;51.480;7.006;2023-07-22T06:29:30;7.68;;;6.25;;
14268;SDS011;7218;51.480;7.006;2023-07-22T06:31:56;8.82;;;6.45;;
14268;SDS011;7218;51.480;7.006;2023-07-22T06:34:22;8.32;;;7.25;;
14268;SDS011;7218;51.480;7.006;2023-07-22T06:36:49;8.45;;;5.93;;
14268;SDS011;7218;51.480;7.006;2023-07-22T06:39:17;9.45;;;6.50;;
14268;SDS011;7218;51.480;7.006;2023-07-22T06:41:43;9.60;;;6.55;;
14268;SDS011;7218;51.480;7.006;2023-07-22T06:44:10;8.40;;;7.00;;
14268;SDS011;7218;51.480;7.006;2023-07-22T06:46:36;9.57;;;6.78;;
14268;SDS011;7218;51.480;7.006;2023-07-22T06:49:03;9.13;;;7.15;;
14268;SDS011;7218;51.480;7.006;2023-07-22T06:51:29;10.20;;;7.15;;
14268;SDS011;7218;51.480;7.006;2023-07-22T06:53:56;9.75;;;7.00;;
14268;SDS011;7218;51.480;7.006;2023-07-22T06:56:23;12.13;;;7.15;;
14268;SDS011;7218;51.480;7.006;2023-07-22T06:58:51;10.20;;;6.88;;
14268;SDS011;7218;51.480;7.006;2023-07-22T07:01:17;9.93;;;7.50;;
14268;SDS011;7218;51.480;7.006;2023-07-22T07:03:44;10.23;;;7.35;;
14268;SDS011;7218;51.480;7.006;2023-07-22T07:06:11;9.10;;;6.75;;
14268;SDS011;7218;51.480;7.006;2023-07-22T07:08:37;9.48;;;6.82;;
14268;SDS011;7218;51.480;7.006;2023-07-22T07:11:04;8.45;;;6.53;;
14268;SDS011;7218;51.480;7.006;2023-07-22T07:13:33;10.73;;;6.57;;
14268;SDS011;7218;51.480;7.006;2023-07-22T07:18:48;9.73;;;7.22;;
14268;SDS011;7218;51.480;7.006;2023-07-22T07:21:14;10.45;;;6.72;;
14268;SDS011;7218;51.480;7.006;2023-07-22T07:23:41;9.02;;;6.35;;
14268;SDS011;7218;51.480;7.006;2023-07-22T07:26:07;9.38;;;6.53;;
14268;SDS011;7218;51.480;7.006;2023-07-22T07:28:35;9.07;;;6.20;;
14268;SDS011;7218;51.480;7.006;2023-07-22T07:31:02;9.82;;;6.45;;
14268;SDS011;7218;51.480;7.006;2023-07-22T07:33:28;10.45;;;6.68;;
14268;SDS011;7218;51.480;7.006;2023-07-22T07:35:55;9.90;;;6.40;;
14268;SDS011;7218;51.480;7.006;2023-07-22T07:38:21;9.93;;;6.85;;
14268;SDS011;7218;51.480;7.006;2023-07-22T07:40:51;7.53;;;6.45;;
14268;SDS011;7218;51.480;7.006;2023-07-22T07:43:18;7.93;;;6.32;;
14268;SDS011;7218;51.480;7.006;2023-07-22T07:45:45;7.53;;;5.90;;
14268;SDS011;7218;51.480;7.006;2023-07-22T07:48:12;8.95;;;5.90;;
14268;SDS011;7218;51.480;7.006;2023-07-22T07:50:38;8.10;;;6.20;;
14268;SDS011;7218;51.480;7.006;2023-07-22T07:53:05;9.13;;;5.97;;
14268;SDS011;7218;51.480;7.006;2023-07-22T07:55:31;7.25;;;5.68;;
14268;SDS011;7218;51.480;7.006;2023-07-22T07:57:58;6.57;;;5.88;;
14268;SDS011;7218;51.480;7.006;2023-07-22T08:00:24;8.80;;;6.22;;
14268;SDS011;7218;51.480;7.006;2023-07-22T08:02:52;10.10;;;6.03;;
14268;SDS011;7218;51.480;7.006;2023-07-22T08:05:18;9.50;;;6.28;;
14268;SDS011;7218;51.480;7.006;2023-07-22T08:07:45;9.43;;;6.50;;
14268;SDS011;7218;51.480;7.006;2023-07-22T08:10:12;8.75;;;6.32;;
14268;SDS011;7218;51.480;7.006;2023-07-22T08:12:38;8.52;;;6.40;;
14268;SDS011;7218;51.480;7.006;2023-07-22T08:15:06;9.98;;;5.88;;
14268;SDS011;7218;51.480;7.006;2023-07-22T08:17:33;8.45;;;6.57;;
14268;SDS011;7218;51.480;7.006;2023-07-22T08:20:01;9.02;;;6.65;;
14268;SDS011;7218;51.480;7.006;2023-07-22T08:22:29;15.55;;;7.28;;
14268;SDS011;7218;51.480;7.006;2023-07-22T08:24:55;9.23;;;6.93;;
14268;SDS011;7218;51.480;7.006;2023-07-22T08:27:22;8.85;;;6.30;;
14268;SDS011;7218;51.480;7.006;2023-07-22T08:29:49;9.60;;;6.80;;
14268;SDS011;7218;51.480;7.006;2023-07-22T08:32:15;11.48;;;7.00;;
14268;SDS011;7218;51.480;7.006;2023-07-22T08:34:42;8.48;;;6.88;;
14268;SDS011;7218;51.480;7.006;2023-07-22T08:37:10;11.45;;;7.28;;
14268;SDS011;7218;51.480;7.006;2023-07-22T08:39:36;13.13;;;7.07;;
14268;SDS011;7218;51.480;7.006;2023-07-22T08:42:03;7.10;;;6.10;;
14268;SDS011;7218;51.480;7.006;2023-07-22T08:44:31;8.45;;;6.10;;
14268;SDS011;7218;51.480;7.006;2023-07-22T08:47:00;7.95;;;5.93;;
14268;SDS011;7218;51.480;7.006;2023-07-22T08:49:29;8.00;;;5.80;;
14268;SDS011;7218;51.480;7.006;2023-07-22T08:51:56;11.30;;;5.57;;
14268;SDS011;7218;51.480;7.006;2023-07-22T08:54:25;9.57;;;5.60;;
14268;SDS011;7218;51.480;7.006;2023-07-22T08:56:53;7.93;;;5.72;;
14268;SDS011;7218;51.480;7.006;2023-07-22T08:59:19;9.73;;;5.88;;
14268;SDS011;7218;51.480;7.006;2023-07-22T09:01:46;7.53;;;5.90;;
14268;SDS011;7218;51.480;7.006;2023-07-22T09:04:14;7.15;;;5.72;;
14268;SDS011;7218;51.480;7.006;2023-07-22T09:06:40;8.52;;;4.95;;
14268;SDS011;7218;51.480;7.006;2023-07-22T09:09:08;7.93;;;5.53;;
14268;SDS011;7218;51.480;7.006;2023-07-22T09:11:38;7.20;;;5.45;;
14268;SDS011;7218;51.480;7.006;2023-07-22T09:14:05;10.73;;;5.45;;
14268;SDS011;7218;51.480;7.006;2023-07-22T09:16:31;7.40;;;5.85;;
14268;SDS011;7218;51.480;7.006;2023-07-22T09:18:58;7.38;;;5.68;;
14268;SDS011;7218;51.480;7.006;2023-07-22T09:21:25;6.70;;;5.40;;
14268;SDS011;7218;51.480;7.006;2023-07-22T09:23:53;6.32;;;5.60;;
14268;SDS011;7218;51.480;7.006;2023-07-22T09:26:19;8.65;;;5.82;;
14268;SDS011;7218;51.480;7.006;2023-07-22T09:28:51;7.78;;;5.20;;
14268;SDS011;7218;51.480;7.006;2023-07-22T09:31:20;6.80;;;4.82;;
14268;SDS011;7218;51.480;7.006;2023-07-22T09:33:47;7.70;;;5.40;;
14268;SDS011;7218;51.480;7.006;2023-07-22T09:36:13;6.28;;;5.10;;
14268;SDS011;7218;51.480;7.006;2023-07-22T09:38:40;6.05;;;4.80;;
14268;SDS011;7218;51.480;7.006;2023-07-22T09:41:06;8.25;;;5.13;;
14268;SDS011;7218;51.480;7.006;2023-07-22T09:43:36;6.95;;;4.90;;
14268;SDS011;7218;51.480;7.006;2023-07-22T09:46:08;6.72;;;5.22;;
14268;SDS011;7218;51.480;7.006;2023-07-22T09:48:42;5.85;;;5.13;;
14268;SDS011;7218;51.480;7.006;2023-07-22T09:51:13;8.55;;;5.45;;
14268;SDS011;7218;51.480;7.006;2023-07-22T09:53:44;8.00;;;5.18;;
14268;SDS011;7218;51.480;7.006;2023-07-22T09:56:11;6.18;;;4.88;;
14268;SDS011;7218;51.480;7.006;2023-07-22T09:58:38;5.55;;;4.72;;
14268;SDS011;7218;51.480;7.006;2023-07-22T10:01:05;6.68;;;4.43;;
14268;SDS011;7218;51.480;7.006;2023-07-22T10:03:34;5.88;;;4.70;;
14268;SDS011;7218;51.480;7.006;2023-07-22T10:06:04;5.57;;;4.75;;
14268;SDS011;7218;51.480;7.006;2023-07-22T10:08:32;6.35;;;4.38;;
14268;SDS011;7218;51.480;7.006;2023-07-22T10:11:00;6.38;;;4.53;;
14268;SDS011;7218;51.480;7.006;2023-07-22T10:13:31;5.78;;;4.20;;
14268;SDS011;7218;51.480;7.006;2023-07-22T10:15:58;5.13;;;4.20;;
14268;SDS011;7218;51.480;7.006;2023-07-22T10:18:25;6.47;;;3.97;;
14268;SDS011;7218;51.480;7.006;2023-07-22T10:20:53;5.57;;;3.72;;
14268;SDS011;7218;51.480;7.006;2023-07-22T10:23:21;7.00;;;4.03;;
14268;SDS011;7218;51.480;7.006;2023-07-22T10:25:50;4.72;;;3.90;;
14268;SDS011;7218;51.480;7.006;2023-07-22T10:28:18;4.90;;;3.35;;
14268;SDS011;7218;51.480;7.006;2023-07-22T10:30:46;3.97;;;3.58;;
14268;SDS011;7218;51.480;7.006;2023-07-22T10:33:12;4.38;;;3.45;;
14268;SDS011;7218;51.480;7.006;2023-07-22T10:35:40;4.93;;;3.78;;
14268;SDS011;7218;51.480;7.006;2023-07-22T10:38:11;6.35;;;4.20;;
14268;SDS011;7218;51.480;7.006;2023-07-22T10:40:44;6.22;;;3.50;;
14268;SDS011;7218;51.480;7.006;2023-07-22T10:43:11;4.45;;;3.50;;
14268;SDS011;7218;51.480;7.006;2023-07-22T10:45:41;3.63;;;2.97;;
14268;SDS011;7218;51.480;7.006;2023-07-22T10:48:09;7.50;;;3.10;;
14268;SDS011;7218;51.480;7.006;2023-07-22T10:50:40;3.75;;;3.20;;
14268;SDS011;7218;51.480;7.006;2023-07-22T10:53:09;3.85;;;3.20;;
14268;SDS011;7218;51.480;7.006;2023-07-22T10:56:05;4.75;;;3.25;;
14268;SDS011;7218;51.480;7.006;2023-07-22T10:58:33;3.58;;;2.90;;
14268;SDS011;7218;51.480;7.006;2023-07-22T11:01:21;3.80;;;2.88;;
14268;SDS011;7218;51.480;7.006;2023-07-22T11:04:02;5.45;;;2.95;;
14268;SDS011;7218;51.480;7.006;2023-07-22T11:06:32;3.83;;;3.10;;
14268;SDS011;7218;51.480;7.006;2023-07-22T11:09:00;5.72;;;2.60;;
14268;SDS011;7218;51.480;7.006;2023-07-22T11:11:37;2.97;;;2.63;;
14268;SDS011;7218;51.480;7.006;2023-07-22T11:14:15;6.18;;;2.90;;
14268;SDS011;7218;51.480;7.006;2023-07-22T11:16:48;4.95;;;2.72;;
14268;SDS011;7218;51.480;7.006;2023-07-22T11:19:16;2.60;;;2.40;;
14268;SDS011;7218;51.480;7.006;2023-07-22T11:21:43;2.58;;;2.28;;
14268;SDS011;7218;51.480;7.006;2023-07-22T11:24:12;3.20;;;2.40;;
14268;SDS011;7218;51.480;7.006;2023-07-22T11:26:39;3.35;;;2.35;;
14268;SDS011;7218;51.480;7.006;2023-07-22T11:29:07;2.58;;;2.38;;
14268;SDS011;7218;51.480;7.006;2023-07-22T11:34:02;3.00;;;2.33;;
14268;SDS011;7218;51.480;7.006;2023-07-22T11:36:29;2.50;;;2.30;;
14268;SDS011;7218;51.480;7.006;2023-07-22T11:39:00;3.72;;;2.40;;
14268;SDS011;7218;51.480;7.006;2023-07-22T11:41:30;6.65;;;3.83;;
14268;SDS011;7218;51.480;7.006;2023-07-22T11:43:58;5.65;;;2.80;;
14268;SDS011;7218;51.480;7.006;2023-07-22T11:46:25;3.97;;;2.60;;
14268;SDS011;7218;51.480;7.006;2023-07-22T11:48:52;3.88;;;3.10;;
14268;SDS011;7218;51.480;7.006;2023-07-22T11:51:20;2.42;;;2.22;;
14268;SDS011;7218;51.480;7.006;2023-07-22T11:53:47;4.35;;;2.20;;
14268;SDS011;7218;51.480;7.006;2023-07-22T11:56:18;3.63;;;2.20;;
14268;SDS011;7218;51.480;7.006;2023-07-22T11:58:50;4.53;;;2.20;;
14268;SDS011;7218;51.480;7.006;2023-07-22T12:01:18;3.78;;;1.92;;
14268;SDS011;7218;51.480;7.006;2023-07-22T12:03:45;2.88;;;2.08;;
14268;SDS011;7218;51.480;7.006;2023-07-22T12:06:12;5.38;;;2.20;;
14268;SDS011;7218;51.480;7.006;2023-07-22T12:08:42;3.25;;;2.38;;
14268;SDS011;7218;51.480;7.006;2023-07-22T12:11:15;3.70;;;2.10;;
14268;SDS011;7218;51.480;7.006;2023-07-22T12:13:43;3.33;;;2.00;;
14268;SDS011;7218;51.480;7.006;2023-07-22T12:16:12;2.58;;;2.03;;
14268;SDS011;7218;51.480;7.006;2023-07-22T12:18:42;3.15;;;2.38;;
14268;SDS011;7218;51.480;7.006;2023-07-22T12:21:09;3.80;;;2.22;;
14268;SDS011;7218;51.480;7.006;2023-07-22T12:23:36;3.25;;;2.70;;
14268;SDS011;7218;51.480;7.006;2023-07-22T12:26:03;3.08;;;2.35;;
14268;SDS011;7218;51.480;7.006;2023-07-22T12:28:30;4.40;;;2.35;;
14268;SDS011;7218;51.480;7.006;2023-07-22T12:30:56;3.05;;;2.25;;
14268;SDS011;7218;51.480;7.006;2023-07-22T12:33:24;4.82;;;2.28;;
14268;SDS011;7218;51.480;7.006;2023-07-22T12:35:52;2.10;;;1.90;;
14268;SDS011;7218;51.480;7.006;2023-07-22T12:38:20;3.50;;;1.92;;
14268;SDS011;7218;51.480;7.006;2023-07-22T12:40:46;2.63;;;2.05;;
14268;SDS011;7218;51.480;7.006;2023-07-22T12:43:13;2.78;;;2.30;;
14268;SDS011;7218;51.480;7.006;2023-07-22T12:45:39;3.10;;;2.15;;
14268;SDS011;7218;51.480;7.006;2023-07-22T12:48:06;3.22;;;2.10;;
14268;SDS011;7218;51.480;7.006;2023-07-22T12:50:34;2.78;;;2.10;;
14268;SDS011;7218;51.480;7.006;2023-07-22T12:53:00;3.17;;;2.35;;
14268;SDS011;7218;51.480;7.006;2023-07-22T12:55:28;2.92;;;2.45;;
14268;SDS011;7218;51.480;7.006;2023-07-22T12:57:54;6.93;;;4.38;;
14268;SDS011;7218;51.480;7.006;2023-07-22T13:00:21;6.10;;;4.60;;
14268;SDS011;7218;51.480;7.006;2023-07-22T13:02:47;9.80;;;5.40;;
14268;SDS011;7218;51.480;7.006;2023-07-22T13:05:14;6.15;;;3.00;;
14268;SDS011;7218;51.480;7.006;2023-07-22T13:07:42;4.20;;;2.90;;
14268;SDS011;7218;51.480;7.006;2023-07-22T13:10:09;3.67;;;2.65;;
14268;SDS011;7218;51.480;7.006;2023-07-22T13:12:40;4.35;;;2.67;;
14268;SDS011;7218;51.480;7.006;2023-07-22T13:15:07;3.00;;;2.70;;
14268;SDS011;7218;51.480;7.006;2023-07-22T13:17:34;3.75;;;2.67;;
14268;SDS011;7218;51.480;7.006;2023-07-22T13:20:00;2.85;;;2.35;;
14268;SDS011;7218;51.480;7.006;2023-07-22T13:22:28;5.22;;;3.00;;
14268;SDS011;7218;51.480;7.006;2023-07-22T13:24:56;7.00;;;4.82;;
14268;SDS011;7218;51.480;7.006;2023-07-22T13:27:22;5.55;;;3.78;;
14268;SDS011;7218;51.480;7.006;2023-07-22T13:29:49;2.83;;;2.50;;
14268;SDS011;7218;51.480;7.006;2023-07-22T13:32:15;6.57;;;2.97;;
14268;SDS011;7218;51.480;7.006;2023-07-22T13:34:42;3.88;;;2.67;;
14268;SDS011;7218;51.480;7.006;2023-07-22T13:37:08;6.13;;;3.80;;
14268;SDS011;7218;51.480;7.006;2023-07-22T13:39:35;3.13;;;2.50;;
14268;SDS011;7218;51.480;7.006;2023-07-22T13:42:03;4.13;;;2.50;;
14268;SDS011;7218;51.480;7.006;2023-07-22T13:44:30;3.85;;;2.60;;
14268;SDS011;7218;51.480;7.006;2023-07-22T13:46:56;6.32;;;4.82;;
14268;SDS011;7218;51.480;7.006;2023-07-22T13:49:23;2.80;;;2.40;;
14268;SDS011;7218;51.480;7.006;2023-07-22T13:51:50;2.70;;;2.50;;
14268;SDS011;7218;51.480;7.006;2023-07-22T13:54:16;3.25;;;2.30;;
14268;SDS011;7218;51.480;7.006;2023-07-22T13:56:44;2.78;;;2.45;;
14268;SDS011;7218;51.480;7.006;2023-07-22T13:59:13;3.70;;;2.25;;
14268;SDS011;7218;51.480;7.006;2023-07-22T14:01:40;3.13;;;2.67;;
14268;SDS011;7218;51.480;7.006;2023-07-22T14:04:06;11.18;;;8.77;;
14268;SDS011;7218;51.480;7.006;2023-07-22T14:06:33;4.43;;;3.72;;
14268;SDS011;7218;51.480;7.006;2023-07-22T14:09:00;5.03;;;2.67;;
14268;SDS011;7218;51.480;7.006;2023-07-22T14:11:26;3.33;;;2.60;;
14268;SDS011;7218;51.480;7.006;2023-07-22T14:13:53;5.07;;;2.50;;
14268;SDS011;7218;51.480;7.006;2023-07-22T14:16:21;3.47;;;2.47;;
14268;SDS011;7218;51.480;7.006;2023-07-22T14:18:47;2.85;;;2.60;;
14268;SDS011;7218;51.480;7.006;2023-07-22T14:21:14;4.75;;;3.15;;
14268;SDS011;7218;51.480;7.006;2023-07-22T14:23:40;5.43;;;4.47;;
14268;SDS011;7218;51.480;7.006;2023-07-22T14:26:07;3.10;;;2.70;;
14268;SDS011;7218;51.480;7.006;2023-07-22T14:28:33;4.50;;;2.80;;
14268;SDS011;7218;51.480;7.006;2023-07-22T14:31:00;4.45;;;2.90;;
14268;SDS011;7218;51.480;7.006;2023-07-22T14:33:27;3.25;;;2.70;;
14268;SDS011;7218;51.480;7.006;2023-07-22T14:35:54;4.00;;;2.40;;
14268;SDS011;7218;51.480;7.006;2023-07-22T14:38:21;3.63;;;2.90;;
14268;SDS011;7218;51.480;7.006;2023-07-22T14:40:47;4.05;;;3.58;;
14268;SDS011;7218;51.480;7.006;2023-07-22T14:43:14;5.47;;;4.60;;
14268;SDS011;7218;51.480;7.006;2023-07-22T14:45:40;4.03;;;3.55;;
14268;SDS011;7218;51.480;7.006;2023-07-22T14:48:07;4.68;;;3.80;;
14268;SDS011;7218;51.480;7.006;2023-07-22T14:50:35;3.72;;;2.70;;
14268;SDS011;7218;51.480;7.006;2023-07-22T14:53:01;2.92;;;2.72;;
14268;SDS011;7218;51.480;7.006;2023-07-22T14:55:28;3.40;;;2.88;;
14268;SDS011;7218;51.480;7.006;2023-07-22T14:57:55;5.32;;;3.65;;
14268;SDS011;7218;51.480;7.006;2023-07-22T15:00:21;4.72;;;3.47;;
14268;SDS011;7218;51.480;7.006;2023-07-22T15:02:48;4.88;;;4.38;;
14268;SDS011;7218;51.480;7.006;2023-07-22T15:05:14;6.93;;;3.53;;
14268;SDS011;7218;51.480;7.006;2023-07-22T15:07:42;8.18;;;3.10;;